sensor_id;sensor_type;location;lat;lon;timestamp;pressure;altitude;pressure_sealevel;temperature;humidity
73429;BME280;61643;49.564;17.412;2022-12-19T00:01:05;100179.63;;;-9.34;96.62
73429;BME280;61643;49.564;17.412;2022-12-19T00:03:31;100178.22;;;-9.24;96.15
73429;BME280;61643;49.564;17.412;2022-12-19T00:06:02;100179.72;;;-9.20;96.25
73429;BME280;61643;49.564;17.412;2022-12-19T00:08:31;100184.44;;;-9.26;95.78
73429;BME280;61643;49.564;17.412;2022-12-19T00:11:01;100181.84;;;-9.26;95.52
73429;BME280;61643;49.564;17.412;2022-12-19T00:13:29;100182.50;;;-9.38;95.61
73429;BME280;61643;49.564;17.412;2022-12-19T00:15:54;100171.19;;;-9.70;95.36
73429;BME280;61643;49.564;17.412;2022-12-19T00:18:20;100171.00;;;-9.83;95.42
73429;BME280;61643;49.564;17.412;2022-12-19T00:20:54;100171.41;;;-9.90;95.76
73429;BME280;61643;49.564;17.412;2022-12-19T00:23:19;100162.91;;;-9.94;94.91
73429;BME280;61643;49.564;17.412;2022-12-19T00:25:44;100161.78;;;-10.21;94.95
73429;BME280;61643;49.564;17.412;2022-12-19T00:28:10;100155.94;;;-10.26;96.25
73429;BME280;61643;49.564;17.412;2022-12-19T00:30:35;100157.66;;;-10.10;95.42
73429;BME280;61643;49.564;17.412;2022-12-19T00:33:00;100158.88;;;-10.00;95.13
73429;BME280;61643;49.564;17.412;2022-12-19T00:35:26;100174.09;;;-9.92;93.69
73429;BME280;61643;49.564;17.412;2022-12-19T00:37:51;100185.09;;;-9.87;92.77
73429;BME280;61643;49.564;17.412;2022-12-19T00:40:16;100170.72;;;-9.94;91.54
73429;BME280;61643;49.564;17.412;2022-12-19T00:42:42;100164.53;;;-9.91;90.89
73429;BME280;61643;49.564;17.412;2022-12-19T00:45:07;100165.50;;;-9.94;92.47
73429;BME280;61643;49.564;17.412;2022-12-19T00:47:33;100163.84;;;-10.12;92.36
73429;BME280;61643;49.564;17.412;2022-12-19T00:49:59;100165.16;;;-10.04;92.32
73429;BME280;61643;49.564;17.412;2022-12-19T00:52:24;100162.53;;;-10.19;92.27
73429;BME280;61643;49.564;17.412;2022-12-19T00:54:49;100158.25;;;-10.20;92.18
73429;BME280;61643;49.564;17.412;2022-12-19T00:57:15;100168.75;;;-10.22;92.22
73429;BME280;61643;49.564;17.412;2022-12-19T00:59:40;100163.78;;;-10.43;91.90
73429;BME280;61643;49.564;17.412;2022-12-19T01:02:05;100160.28;;;-10.42;91.71
73429;BME280;61643;49.564;17.412;2022-12-19T01:04:31;100151.78;;;-10.46;91.40
73429;BME280;61643;49.564;17.412;2022-12-19T01:06:56;100143.72;;;-10.41;90.36
73429;BME280;61643;49.564;17.412;2022-12-19T01:09:22;100148.78;;;-10.38;91.13
73429;BME280;61643;49.564;17.412;2022-12-19T01:11:48;100142.00;;;-10.75;90.29
73429;BME280;61643;49.564;17.412;2022-12-19T01:14:32;100138.38;;;-10.73;90.35
73429;BME280;61643;49.564;17.412;2022-12-19T01:16:57;100138.06;;;-10.84;91.20
73429;BME280;61643;49.564;17.412;2022-12-19T01:19:23;100138.06;;;-10.67;90.69
73429;BME280;61643;49.564;17.412;2022-12-19T01:21:48;100148.47;;;-10.67;91.05
73429;BME280;61643;49.564;17.412;2022-12-19T01:24:13;100139.97;;;-10.70;90.81
73429;BME280;61643;49.564;17.412;2022-12-19T01:26:39;100134.13;;;-10.57;91.37
73429;BME280;61643;49.564;17.412;2022-12-19T01:29:04;100136.03;;;-10.60;90.27
73429;BME280;61643;49.564;17.412;2022-12-19T01:31:29;100139.69;;;-10.47;90.16
73429;BME280;61643;49.564;17.412;2022-12-19T01:33:55;100130.47;;;-10.37;88.86
73429;BME280;61643;49.564;17.412;2022-12-19T01:36:20;100129.63;;;-10.37;89.28
73429;BME280;61643;49.564;17.412;2022-12-19T01:38:45;100136.75;;;-10.24;88.85
73429;BME280;61643;49.564;17.412;2022-12-19T01:41:11;100151.69;;;-10.12;88.22
73429;BME280;61643;49.564;17.412;2022-12-19T01:44:12;100137.88;;;-9.97;88.11
73429;BME280;61643;49.564;17.412;2022-12-19T01:46:40;100136.97;;;-10.13;87.76
73429;BME280;61643;49.564;17.412;2022-12-19T01:49:26;100132.31;;;-10.06;87.55
73429;BME280;61643;49.564;17.412;2022-12-19T01:51:55;100132.06;;;-10.17;89.13
73429;BME280;61643;49.564;17.412;2022-12-19T01:54:28;100124.72;;;-10.26;88.05
73429;BME280;61643;49.564;17.412;2022-12-19T01:56:57;100125.75;;;-10.13;88.00
73429;BME280;61643;49.564;17.412;2022-12-19T01:59:32;100123.81;;;-10.10;87.55
73429;BME280;61643;49.564;17.412;2022-12-19T02:02:07;100112.72;;;-10.13;86.98
73429;BME280;61643;49.564;17.412;2022-12-19T02:04:34;100095.19;;;-10.10;87.68
73429;BME280;61643;49.564;17.412;2022-12-19T02:07:05;100100.41;;;-10.10;87.95
73429;BME280;61643;49.564;17.412;2022-12-19T02:09:32;100085.03;;;-9.99;88.09
73429;BME280;61643;49.564;17.412;2022-12-19T02:11:59;100080.75;;;-10.00;87.48
73429;BME280;61643;49.564;17.412;2022-12-19T02:14:25;100080.06;;;-10.03;86.86
73429;BME280;61643;49.564;17.412;2022-12-19T02:17:01;100097.28;;;-10.01;88.30
73429;BME280;61643;49.564;17.412;2022-12-19T02:19:42;100089.31;;;-9.98;87.19
73429;BME280;61643;49.564;17.412;2022-12-19T02:22:23;100083.19;;;-9.97;87.13
73429;BME280;61643;49.564;17.412;2022-12-19T02:33:05;100082.31;;;-10.13;86.76
73429;BME280;61643;49.564;17.412;2022-12-19T02:35:40;100075.94;;;-10.23;86.73
73429;BME280;61643;49.564;17.412;2022-12-19T02:38:24;100071.63;;;-10.39;87.14
73429;BME280;61643;49.564;17.412;2022-12-19T02:41:06;100074.47;;;-10.44;88.84
73429;BME280;61643;49.564;17.412;2022-12-19T02:43:37;100069.25;;;-10.44;87.80
73429;BME280;61643;49.564;17.412;2022-12-19T02:46:05;100061.28;;;-10.41;88.35
73429;BME280;61643;49.564;17.412;2022-12-19T02:48:31;100063.88;;;-10.41;88.30
73429;BME280;61643;49.564;17.412;2022-12-19T02:50:58;100066.59;;;-10.42;88.98
73429;BME280;61643;49.564;17.412;2022-12-19T02:53:23;100056.88;;;-10.39;89.42
73429;BME280;61643;49.564;17.412;2022-12-19T02:56:09;100048.03;;;-10.36;89.26
73429;BME280;61643;49.564;17.412;2022-12-19T02:59:18;100050.47;;;-10.33;90.41
73429;BME280;61643;49.564;17.412;2022-12-19T03:02:08;100053.34;;;-10.22;89.95
73429;BME280;61643;49.564;17.412;2022-12-19T03:12:38;100060.75;;;-9.99;88.07
73429;BME280;61643;49.564;17.412;2022-12-19T03:15:08;100056.13;;;-9.94;87.05
73429;BME280;61643;49.564;17.412;2022-12-19T03:17:37;100049.84;;;-10.06;86.89
73429;BME280;61643;49.564;17.412;2022-12-19T03:20:07;100061.41;;;-10.11;88.82
73429;BME280;61643;49.564;17.412;2022-12-19T03:22:33;100053.25;;;-10.05;89.01
73429;BME280;61643;49.564;17.412;2022-12-19T03:24:59;100054.38;;;-9.93;88.12
73429;BME280;61643;49.564;17.412;2022-12-19T03:27:28;100047.66;;;-9.82;89.41
73429;BME280;61643;49.564;17.412;2022-12-19T03:30:04;100052.44;;;-9.74;88.46
73429;BME280;61643;49.564;17.412;2022-12-19T03:32:31;100051.44;;;-9.72;87.88
73429;BME280;61643;49.564;17.412;2022-12-19T03:37:37;100051.09;;;-9.66;88.70
73429;BME280;61643;49.564;17.412;2022-12-19T03:40:09;100032.09;;;-9.68;87.55
73429;BME280;61643;49.564;17.412;2022-12-19T03:42:39;100044.63;;;-9.59;87.78
73429;BME280;61643;49.564;17.412;2022-12-19T03:48:10;100043.50;;;-9.55;87.96
73429;BME280;61643;49.564;17.412;2022-12-19T03:53:57;100039.63;;;-9.48;88.13
73429;BME280;61643;49.564;17.412;2022-12-19T03:59:42;100030.88;;;-9.47;88.35
73429;BME280;61643;49.564;17.412;2022-12-19T04:02:10;100028.03;;;-9.42;88.99
73429;BME280;61643;49.564;17.412;2022-12-19T04:04:46;100027.50;;;-9.33;88.28
73429;BME280;61643;49.564;17.412;2022-12-19T04:07:13;100010.94;;;-9.32;88.95
73429;BME280;61643;49.564;17.412;2022-12-19T04:09:42;100030.75;;;-9.29;88.94
73429;BME280;61643;49.564;17.412;2022-12-19T04:12:13;100038.50;;;-9.28;89.99
73429;BME280;61643;49.564;17.412;2022-12-19T04:14:40;100032.56;;;-9.30;89.96
73429;BME280;61643;49.564;17.412;2022-12-19T04:17:52;100040.69;;;-9.20;89.98
73429;BME280;61643;49.564;17.412;2022-12-19T04:22:49;100034.97;;;-9.27;88.94
73429;BME280;61643;49.564;17.412;2022-12-19T04:25:19;100043.91;;;-9.31;87.57
73429;BME280;61643;49.564;17.412;2022-12-19T04:27:49;100046.41;;;-9.29;87.61
73429;BME280;61643;49.564;17.412;2022-12-19T04:30:17;100038.75;;;-9.32;86.76
73429;BME280;61643;49.564;17.412;2022-12-19T04:32:47;100038.88;;;-9.34;87.42
73429;BME280;61643;49.564;17.412;2022-12-19T04:35:14;100043.97;;;-9.32;87.80
73429;BME280;61643;49.564;17.412;2022-12-19T04:37:39;100041.84;;;-9.26;87.98
73429;BME280;61643;49.564;17.412;2022-12-19T04:40:06;100035.81;;;-9.26;87.71
73429;BME280;61643;49.564;17.412;2022-12-19T04:42:32;100047.34;;;-9.30;86.97
73429;BME280;61643;49.564;17.412;2022-12-19T04:44:57;100037.25;;;-9.36;87.21
73429;BME280;61643;49.564;17.412;2022-12-19T04:47:23;100040.19;;;-9.27;88.11
73429;BME280;61643;49.564;17.412;2022-12-19T04:49:48;100044.94;;;-9.49;87.09
73429;BME280;61643;49.564;17.412;2022-12-19T04:52:14;100043.69;;;-9.58;86.59
73429;BME280;61643;49.564;17.412;2022-12-19T04:54:39;100041.66;;;-9.68;88.70
73429;BME280;61643;49.564;17.412;2022-12-19T04:57:05;100036.63;;;-9.71;86.71
73429;BME280;61643;49.564;17.412;2022-12-19T04:59:30;100035.13;;;-9.60;88.07
73429;BME280;61643;49.564;17.412;2022-12-19T05:01:55;100027.00;;;-9.39;91.61
73429;BME280;61643;49.564;17.412;2022-12-19T05:04:21;100016.25;;;-9.33;90.09
73429;BME280;61643;49.564;17.412;2022-12-19T05:06:46;100009.22;;;-9.17;89.53
73429;BME280;61643;49.564;17.412;2022-12-19T05:09:11;100009.22;;;-9.17;88.60
73429;BME280;61643;49.564;17.412;2022-12-19T05:11:37;100006.09;;;-9.08;89.77
73429;BME280;61643;49.564;17.412;2022-12-19T05:14:02;100006.44;;;-9.00;90.88
73429;BME280;61643;49.564;17.412;2022-12-19T05:16:28;100001.16;;;-8.99;89.43
73429;BME280;61643;49.564;17.412;2022-12-19T05:18:54;99998.72;;;-9.02;89.28
73429;BME280;61643;49.564;17.412;2022-12-19T05:21:22;100001.63;;;-8.92;88.82
73429;BME280;61643;49.564;17.412;2022-12-19T05:23:49;99985.97;;;-8.92;89.52
73429;BME280;61643;49.564;17.412;2022-12-19T05:26:15;99996.22;;;-8.89;88.80
73429;BME280;61643;49.564;17.412;2022-12-19T05:28:41;100001.38;;;-8.87;88.85
73429;BME280;61643;49.564;17.412;2022-12-19T05:31:08;99986.75;;;-8.90;88.96
73429;BME280;61643;49.564;17.412;2022-12-19T05:33:35;99990.09;;;-8.74;92.83
73429;BME280;61643;49.564;17.412;2022-12-19T05:36:00;99993.94;;;-8.65;91.01
73429;BME280;61643;49.564;17.412;2022-12-19T05:38:26;99992.91;;;-8.63;92.01
73429;BME280;61643;49.564;17.412;2022-12-19T05:40:52;100000.34;;;-8.57;91.48
73429;BME280;61643;49.564;17.412;2022-12-19T05:43:17;99993.34;;;-8.56;90.71
73429;BME280;61643;49.564;17.412;2022-12-19T05:45:42;99987.22;;;-8.55;92.39
73429;BME280;61643;49.564;17.412;2022-12-19T05:48:08;99991.06;;;-8.46;91.41
73429;BME280;61643;49.564;17.412;2022-12-19T05:50:33;99990.47;;;-8.52;90.09
73429;BME280;61643;49.564;17.412;2022-12-19T05:52:58;99983.94;;;-8.59;90.16
73429;BME280;61643;49.564;17.412;2022-12-19T05:55:24;99988.06;;;-8.55;90.08
73429;BME280;61643;49.564;17.412;2022-12-19T05:57:49;99992.06;;;-8.49;91.07
73429;BME280;61643;49.564;17.412;2022-12-19T06:00:15;99978.75;;;-8.59;89.67
73429;BME280;61643;49.564;17.412;2022-12-19T06:02:40;99981.16;;;-8.56;90.00
73429;BME280;61643;49.564;17.412;2022-12-19T06:05:06;99980.22;;;-8.55;90.12
73429;BME280;61643;49.564;17.412;2022-12-19T06:07:33;99984.34;;;-8.51;90.73
73429;BME280;61643;49.564;17.412;2022-12-19T06:09:58;99974.75;;;-8.50;90.41
73429;BME280;61643;49.564;17.412;2022-12-19T06:12:24;99982.25;;;-8.45;90.52
73429;BME280;61643;49.564;17.412;2022-12-19T06:14:49;99981.91;;;-8.39;88.93
73429;BME280;61643;49.564;17.412;2022-12-19T06:17:15;99992.34;;;-8.39;88.96
73429;BME280;61643;49.564;17.412;2022-12-19T06:19:40;100002.78;;;-8.39;88.01
73429;BME280;61643;49.564;17.412;2022-12-19T06:22:05;100005.56;;;-8.57;87.31
73429;BME280;61643;49.564;17.412;2022-12-19T06:24:31;100005.75;;;-8.74;88.34
73429;BME280;61643;49.564;17.412;2022-12-19T06:26:56;100014.03;;;-8.81;88.24
73429;BME280;61643;49.564;17.412;2022-12-19T06:29:21;100015.91;;;-8.69;88.55
73429;BME280;61643;49.564;17.412;2022-12-19T06:31:47;100008.16;;;-8.71;88.71
73429;BME280;61643;49.564;17.412;2022-12-19T06:34:12;100008.16;;;-8.71;88.35
73429;BME280;61643;49.564;17.412;2022-12-19T06:36:40;100001.84;;;-8.67;89.75
73429;BME280;61643;49.564;17.412;2022-12-19T06:39:06;100008.56;;;-8.63;89.61
73429;BME280;61643;49.564;17.412;2022-12-19T06:41:31;100002.22;;;-8.59;90.81
73429;BME280;61643;49.564;17.412;2022-12-19T06:44:16;99984.53;;;-8.54;89.48
73429;BME280;61643;49.564;17.412;2022-12-19T06:46:42;99987.94;;;-8.53;88.23
73429;BME280;61643;49.564;17.412;2022-12-19T06:49:07;99991.59;;;-8.56;88.12
73429;BME280;61643;49.564;17.412;2022-12-19T06:51:34;100002.41;;;-8.62;88.48
73429;BME280;61643;49.564;17.412;2022-12-19T06:53:59;99999.22;;;-8.81;87.19
73429;BME280;61643;49.564;17.412;2022-12-19T06:56:25;99999.59;;;-8.87;88.54
73429;BME280;61643;49.564;17.412;2022-12-19T06:58:50;99995.06;;;-9.13;87.82
73429;BME280;61643;49.564;17.412;2022-12-19T07:03:44;99999.84;;;-9.06;89.46
73429;BME280;61643;49.564;17.412;2022-12-19T07:06:10;100008.13;;;-8.99;88.59
73429;BME280;61643;49.564;17.412;2022-12-19T07:08:35;100018.19;;;-8.93;88.69
73429;BME280;61643;49.564;17.412;2022-12-19T07:11:01;100010.75;;;-8.99;87.74
73429;BME280;61643;49.564;17.412;2022-12-19T07:13:26;100009.06;;;-8.86;88.34
73429;BME280;61643;49.564;17.412;2022-12-19T07:15:53;100009.56;;;-8.93;87.64
73429;BME280;61643;49.564;17.412;2022-12-19T07:18:21;100013.47;;;-8.86;88.39
73429;BME280;61643;49.564;17.412;2022-12-19T07:20:46;100025.31;;;-8.81;87.54
73429;BME280;61643;49.564;17.412;2022-12-19T07:23:14;100018.03;;;-8.90;87.56
73429;BME280;61643;49.564;17.412;2022-12-19T07:25:41;100020.22;;;-9.12;86.57
73429;BME280;61643;49.564;17.412;2022-12-19T07:28:06;100029.19;;;-9.02;87.27
73429;BME280;61643;49.564;17.412;2022-12-19T07:30:33;100019.16;;;-8.94;88.49
73429;BME280;61643;49.564;17.412;2022-12-19T07:32:58;100033.59;;;-8.88;88.10
73429;BME280;61643;49.564;17.412;2022-12-19T07:35:25;100031.78;;;-9.02;88.09
73429;BME280;61643;49.564;17.412;2022-12-19T07:37:50;100020.94;;;-8.80;87.93
73429;BME280;61643;49.564;17.412;2022-12-19T07:40:17;100023.44;;;-8.79;85.57
73429;BME280;61643;49.564;17.412;2022-12-19T07:42:45;100017.88;;;-8.73;86.37
73429;BME280;61643;49.564;17.412;2022-12-19T07:45:11;100016.75;;;-8.69;86.45
73429;BME280;61643;49.564;17.412;2022-12-19T07:47:36;100011.16;;;-8.77;85.67
73429;BME280;61643;49.564;17.412;2022-12-19T07:50:02;100006.13;;;-8.80;86.81
73429;BME280;61643;49.564;17.412;2022-12-19T07:52:28;100012.53;;;-8.71;87.43
73429;BME280;61643;49.564;17.412;2022-12-19T07:54:53;100005.56;;;-8.71;89.45
73429;BME280;61643;49.564;17.412;2022-12-19T07:57:19;99987.13;;;-8.54;88.68
73429;BME280;61643;49.564;17.412;2022-12-19T07:59:44;99990.84;;;-8.43;87.29
73429;BME280;61643;49.564;17.412;2022-12-19T08:02:11;99992.69;;;-8.31;87.91
73429;BME280;61643;49.564;17.412;2022-12-19T08:04:36;100009.59;;;-8.10;89.51
73429;BME280;61643;49.564;17.412;2022-12-19T08:07:02;100006.03;;;-7.95;90.27
73429;BME280;61643;49.564;17.412;2022-12-19T08:09:27;100003.59;;;-7.84;91.40
73429;BME280;61643;49.564;17.412;2022-12-19T08:11:53;100013.00;;;-7.67;90.90
73429;BME280;61643;49.564;17.412;2022-12-19T08:14:19;100008.56;;;-7.53;92.96
73429;BME280;61643;49.564;17.412;2022-12-19T08:16:45;100008.16;;;-7.47;92.45
73429;BME280;61643;49.564;17.412;2022-12-19T08:19:10;100016.66;;;-7.30;92.34
73429;BME280;61643;49.564;17.412;2022-12-19T08:21:35;100013.03;;;-7.15;93.85
73429;BME280;61643;49.564;17.412;2022-12-19T08:24:01;100013.94;;;-7.02;92.52
73429;BME280;61643;49.564;17.412;2022-12-19T08:26:26;100014.69;;;-6.87;92.29
73429;BME280;61643;49.564;17.412;2022-12-19T08:28:54;100018.97;;;-6.74;92.40
73429;BME280;61643;49.564;17.412;2022-12-19T08:31:21;100023.91;;;-6.57;91.63
73429;BME280;61643;49.564;17.412;2022-12-19T08:33:48;100021.19;;;-6.42;92.48
73429;BME280;61643;49.564;17.412;2022-12-19T08:36:15;100029.88;;;-6.29;89.75
73429;BME280;61643;49.564;17.412;2022-12-19T08:38:42;100027.44;;;-6.32;88.54
73429;BME280;61643;49.564;17.412;2022-12-19T08:41:08;100026.81;;;-6.36;89.81
73429;BME280;61643;49.564;17.412;2022-12-19T08:43:34;100026.53;;;-6.19;90.11
73429;BME280;61643;49.564;17.412;2022-12-19T08:46:00;100012.84;;;-6.11;90.75
73429;BME280;61643;49.564;17.412;2022-12-19T08:48:26;100031.72;;;-5.93;91.03
73429;BME280;61643;49.564;17.412;2022-12-19T08:50:56;100029.31;;;-5.73;91.58
73429;BME280;61643;49.564;17.412;2022-12-19T08:53:23;100038.25;;;-5.52;91.85
73429;BME280;61643;49.564;17.412;2022-12-19T08:56:00;100028.66;;;-5.40;92.31
73429;BME280;61643;49.564;17.412;2022-12-19T08:58:27;100033.28;;;-5.20;91.27
73429;BME280;61643;49.564;17.412;2022-12-19T09:00:54;100036.28;;;-5.13;91.29
73429;BME280;61643;49.564;17.412;2022-12-19T09:03:22;100032.41;;;-5.08;91.67
73429;BME280;61643;49.564;17.412;2022-12-19T09:05:55;100017.97;;;-5.02;91.12
73429;BME280;61643;49.564;17.412;2022-12-19T09:08:21;100020.53;;;-4.89;90.95
73429;BME280;61643;49.564;17.412;2022-12-19T09:10:46;100017.75;;;-4.88;91.36
73429;BME280;61643;49.564;17.412;2022-12-19T09:13:12;100017.56;;;-4.85;91.77
73429;BME280;61643;49.564;17.412;2022-12-19T09:15:37;100016.34;;;-4.81;91.56
73429;BME280;61643;49.564;17.412;2022-12-19T09:18:02;100015.97;;;-4.87;91.51
73429;BME280;61643;49.564;17.412;2022-12-19T09:20:28;100032.34;;;-4.84;91.41
73429;BME280;61643;49.564;17.412;2022-12-19T09:22:53;100036.16;;;-4.88;91.07
73429;BME280;61643;49.564;17.412;2022-12-19T09:25:19;100044.06;;;-4.77;90.88
73429;BME280;61643;49.564;17.412;2022-12-19T09:27:44;100024.72;;;-4.76;90.27
73429;BME280;61643;49.564;17.412;2022-12-19T09:30:10;100027.88;;;-4.71;90.38
73429;BME280;61643;49.564;17.412;2022-12-19T09:32:37;100029.06;;;-4.64;90.40
73429;BME280;61643;49.564;17.412;2022-12-19T09:35:02;100025.50;;;-4.52;89.02
73429;BME280;61643;49.564;17.412;2022-12-19T09:37:29;100028.69;;;-4.59;90.28
73429;BME280;61643;49.564;17.412;2022-12-19T09:39:54;100019.41;;;-4.63;89.82
73429;BME280;61643;49.564;17.412;2022-12-19T09:45:52;100010.91;;;-4.56;91.83
73429;BME280;61643;49.564;17.412;2022-12-19T09:48:23;100008.28;;;-4.56;91.54
73429;BME280;61643;49.564;17.412;2022-12-19T09:53:28;100004.38;;;-4.50;91.66
73429;BME280;61643;49.564;17.412;2022-12-19T09:55:57;99997.44;;;-4.40;91.72
73429;BME280;61643;49.564;17.412;2022-12-19T10:01:01;100007.72;;;-4.26;91.47
73429;BME280;61643;49.564;17.412;2022-12-19T10:03:34;100012.63;;;-4.21;90.62
73429;BME280;61643;49.564;17.412;2022-12-19T10:06:11;100012.38;;;-4.07;90.29
73429;BME280;61643;49.564;17.412;2022-12-19T10:08:40;100021.94;;;-3.95;88.82
73429;BME280;61643;49.564;17.412;2022-12-19T10:11:26;100013.81;;;-4.03;89.02
73429;BME280;61643;49.564;17.412;2022-12-19T10:22:25;100011.78;;;-3.88;89.97
73429;BME280;61643;49.564;17.412;2022-12-19T10:27:45;100007.19;;;-3.75;87.92
73429;BME280;61643;49.564;17.412;2022-12-19T10:30:14;100010.31;;;-3.70;87.43
73429;BME280;61643;49.564;17.412;2022-12-19T10:35:33;100012.69;;;-3.67;89.40
73429;BME280;61643;49.564;17.412;2022-12-19T10:40:32;99998.56;;;-3.55;88.84
73429;BME280;61643;49.564;17.412;2022-12-19T10:43:11;99992.91;;;-3.51;87.78
73429;BME280;61643;49.564;17.412;2022-12-19T10:45:44;99995.06;;;-3.44;87.61
73429;BME280;61643;49.564;17.412;2022-12-19T10:48:17;99991.09;;;-3.39;88.30
73429;BME280;61643;49.564;17.412;2022-12-19T10:50:43;99977.22;;;-3.41;88.02
73429;BME280;61643;49.564;17.412;2022-12-19T10:53:10;99981.50;;;-3.40;86.12
73429;BME280;61643;49.564;17.412;2022-12-19T10:55:43;99976.00;;;-3.37;87.02
73429;BME280;61643;49.564;17.412;2022-12-19T11:03:20;99962.44;;;-3.32;86.56
73429;BME280;61643;49.564;17.412;2022-12-19T11:05:51;99955.44;;;-3.43;87.55
73429;BME280;61643;49.564;17.412;2022-12-19T11:08:20;99951.59;;;-3.39;86.94
73429;BME280;61643;49.564;17.412;2022-12-19T11:10:50;99946.59;;;-3.42;88.38
73429;BME280;61643;49.564;17.412;2022-12-19T11:13:24;99949.53;;;-3.35;87.59
73429;BME280;61643;49.564;17.412;2022-12-19T11:15:54;99941.41;;;-3.32;87.81
73429;BME280;61643;49.564;17.412;2022-12-19T11:18:21;99940.31;;;-3.30;88.59
73429;BME280;61643;49.564;17.412;2022-12-19T11:24:03;99934.88;;;-3.17;88.81
73429;BME280;61643;49.564;17.412;2022-12-19T11:29:02;99941.94;;;-2.97;86.94
73429;BME280;61643;49.564;17.412;2022-12-19T11:31:29;99926.56;;;-2.92;86.72
73429;BME280;61643;49.564;17.412;2022-12-19T11:34:03;99931.72;;;-2.90;88.17
73429;BME280;61643;49.564;17.412;2022-12-19T11:36:43;99929.13;;;-2.81;87.47
73429;BME280;61643;49.564;17.412;2022-12-19T11:39:21;99926.69;;;-2.73;87.68
73429;BME280;61643;49.564;17.412;2022-12-19T11:42:01;99919.06;;;-2.76;86.44
73429;BME280;61643;49.564;17.412;2022-12-19T11:44:56;99930.22;;;-2.63;86.83
73429;BME280;61643;49.564;17.412;2022-12-19T11:47:32;99918.00;;;-2.64;87.09
73429;BME280;61643;49.564;17.412;2022-12-19T11:50:07;99904.97;;;-2.65;87.79
73429;BME280;61643;49.564;17.412;2022-12-19T11:52:48;99907.22;;;-2.61;87.45
73429;BME280;61643;49.564;17.412;2022-12-19T11:55:25;99903.47;;;-2.58;87.58
73429;BME280;61643;49.564;17.412;2022-12-19T11:57:52;99903.19;;;-2.55;87.43
73429;BME280;61643;49.564;17.412;2022-12-19T12:00:21;99902.94;;;-2.52;87.20
73429;BME280;61643;49.564;17.412;2022-12-19T12:03:01;99899.44;;;-2.53;87.40
73429;BME280;61643;49.564;17.412;2022-12-19T12:05:57;99890.19;;;-2.47;87.53
73429;BME280;61643;49.564;17.412;2022-12-19T12:16:39;99866.75;;;-2.50;88.19
73429;BME280;61643;49.564;17.412;2022-12-19T12:22:17;99870.34;;;-2.51;88.64
73429;BME280;61643;49.564;17.412;2022-12-19T12:28:03;99873.53;;;-2.47;88.66
73429;BME280;61643;49.564;17.412;2022-12-19T12:30:58;99875.78;;;-2.43;89.39
73429;BME280;61643;49.564;17.412;2022-12-19T12:33:41;99870.63;;;-2.44;90.18
73429;BME280;61643;49.564;17.412;2022-12-19T12:36:57;99860.94;;;-2.34;89.46
73429;BME280;61643;49.564;17.412;2022-12-19T12:39:41;99861.78;;;-2.34;89.07
73429;BME280;61643;49.564;17.412;2022-12-19T12:44:57;99865.94;;;-2.31;89.73
73429;BME280;61643;49.564;17.412;2022-12-19T12:47:25;99865.13;;;-2.32;90.24
73429;BME280;61643;49.564;17.412;2022-12-19T12:50:06;99851.50;;;-2.37;90.26
73429;BME280;61643;49.564;17.412;2022-12-19T12:52:37;99854.44;;;-2.30;89.43
73429;BME280;61643;49.564;17.412;2022-12-19T12:55:05;99862.06;;;-2.27;89.30
73429;BME280;61643;49.564;17.412;2022-12-19T12:57:39;99844.28;;;-2.35;89.21
73429;BME280;61643;49.564;17.412;2022-12-19T13:00:23;99854.16;;;-2.27;89.37
73429;BME280;61643;49.564;17.412;2022-12-19T13:03:15;99850.44;;;-2.25;89.73
73429;BME280;61643;49.564;17.412;2022-12-19T13:08:33;99849.59;;;-2.25;88.92
73429;BME280;61643;49.564;17.412;2022-12-19T13:14:05;99843.19;;;-2.32;89.04
73429;BME280;61643;49.564;17.412;2022-12-19T13:16:50;99846.25;;;-2.27;89.76
73429;BME280;61643;49.564;17.412;2022-12-19T13:24:53;99831.66;;;-2.31;89.37
73429;BME280;61643;49.564;17.412;2022-12-19T13:38:00;99843.50;;;-2.26;88.48
73429;BME280;61643;49.564;17.412;2022-12-19T13:43:14;99815.72;;;-2.20;88.99
73429;BME280;61643;49.564;17.412;2022-12-19T13:46:05;99835.88;;;-2.19;88.07
73429;BME280;61643;49.564;17.412;2022-12-19T13:48:39;99834.91;;;-2.18;88.77
73429;BME280;61643;49.564;17.412;2022-12-19T13:51:11;99827.94;;;-2.29;87.41
73429;BME280;61643;49.564;17.412;2022-12-19T13:53:38;99826.28;;;-2.30;87.93
73429;BME280;61643;49.564;17.412;2022-12-19T13:56:10;99845.97;;;-2.34;88.04
73429;BME280;61643;49.564;17.412;2022-12-19T13:58:44;99838.44;;;-2.38;88.55
73429;BME280;61643;49.564;17.412;2022-12-19T14:03:47;99827.50;;;-2.43;88.52
73429;BME280;61643;49.564;17.412;2022-12-19T14:06:23;99822.63;;;-2.48;88.47
73429;BME280;61643;49.564;17.412;2022-12-19T14:08:51;99823.44;;;-2.47;88.54
73429;BME280;61643;49.564;17.412;2022-12-19T14:11:19;99814.97;;;-2.51;88.48
73429;BME280;61643;49.564;17.412;2022-12-19T14:13:49;99811.06;;;-2.57;89.01
73429;BME280;61643;49.564;17.412;2022-12-19T14:16:34;99811.19;;;-2.68;88.94
73429;BME280;61643;49.564;17.412;2022-12-19T14:18:59;99813.69;;;-2.66;89.06
73429;BME280;61643;49.564;17.412;2022-12-19T14:21:25;99822.31;;;-2.64;88.79
73429;BME280;61643;49.564;17.412;2022-12-19T14:24:12;99809.25;;;-2.66;89.34
73429;BME280;61643;49.564;17.412;2022-12-19T14:26:39;99818.84;;;-2.65;89.27
73429;BME280;61643;49.564;17.412;2022-12-19T14:29:08;99822.44;;;-2.66;89.10
73429;BME280;61643;49.564;17.412;2022-12-19T14:31:37;99826.84;;;-2.66;89.08
73429;BME280;61643;49.564;17.412;2022-12-19T14:34:05;99817.84;;;-2.64;89.26
73429;BME280;61643;49.564;17.412;2022-12-19T14:36:32;99818.94;;;-2.66;90.09
73429;BME280;61643;49.564;17.412;2022-12-19T14:38:58;99817.03;;;-2.64;89.27
73429;BME280;61643;49.564;17.412;2022-12-19T14:44:12;99819.50;;;-2.72;88.74
73429;BME280;61643;49.564;17.412;2022-12-19T14:46:37;99812.56;;;-2.73;88.61
73429;BME280;61643;49.564;17.412;2022-12-19T14:49:22;99813.09;;;-2.79;89.88
73429;BME280;61643;49.564;17.412;2022-12-19T14:51:48;99805.00;;;-2.87;89.36